Thunder radar more information blitzortung!


Radar de pluja more information rain snow radar


Visita la nostra xarxa de llocs de meteo:

Template documentation
and downloads

And another site



No particular awareness of the weather is required.    There are no Weather-warnings

Pagina Historial Weather Underground text

Diari Resum Juliol 18, 2017 Unitats:  Tant    Imperial   Mètric
« Previous Dia
SegĂźent Dia »
Diari Setmana Mensual Anual Personalitzada
  Maxima: Minima: Media:
Temperatura: 92.8 °F /  33.8 °C 67.8 °F /  19.9 °C 82.9 °F /  28.3 °C
Punt de rosada: 66 °F /  18.9 °C 51.4 °F /  10.8 °C 59.2 °F /  15.1 °C
Humitat: 78 % 28 % 47 %
Wind Speed: 11.5 mph /  18.5 km/h - 4.2 mph /  6.8 km/h
RĂ fegues de vent: 13 mph /  20.9 km/h - -
Vent:- - SSW
Pression baro: 30 in /  1015.8 hPa 29.9 in /  1012.8 hPa -
Precipitacions: 0 in /  0.0 mm    
Historical Graphs
 
 
Dades de taula per Juliol 18, 2017
Temps Temperatura Punt de rosada Pression baro Vent Wind Speed RĂ fegues de vent Humitat Rainfall Rate (Hourly)
00:00 69.6 °F /  20.9 °C 61.3 °F /  16.3 °C 30 in /  1015.8 hPa Calm   1 mph /  1.6 km/h 75 % 0 in /  0.0 mm
00:04 74.1 °F /  23.4 °C 61.5 °F /  16.4 °C 30 in /  1015.8 hPa ENE 1.2 mph /  1.9 km/h 1.2 mph /  1.9 km/h 65 % 0 in /  0.0 mm
00:10 69.4 °F /  20.8 °C 61.2 °F /  16.2 °C 30 in /  1015.8 hPa North 1 mph /  1.6 km/h 1 mph /  1.6 km/h 75 % 0 in /  0.0 mm
00:20 69.3 °F /  20.7 °C 61.3 °F /  16.3 °C 30 in /  1015.8 hPa NNE 1 mph /  1.6 km/h 2 mph /  3.2 km/h 76 % 0 in /  0.0 mm
00:30 69.1 °F /  20.6 °C 61.2 °F /  16.2 °C 30 in /  1014.8 hPa NE 1 mph /  1.6 km/h 2 mph /  3.2 km/h 76 % 0 in /  0.0 mm
00:40 68.7 °F /  20.4 °C 60.8 °F /  16.0 °C 30 in /  1014.8 hPa Calm   2 mph /  3.2 km/h 76 % 0 in /  0.0 mm
00:50 68.4 °F /  20.2 °C 60.4 °F /  15.8 °C 30 in /  1014.8 hPa Calm     76 % 0 in /  0.0 mm
01:00 68 °F /  20.0 °C 60.3 °F /  15.7 °C 30 in /  1014.8 hPa Calm     76 % 0 in /  0.0 mm
01:10 68 °F /  20.0 °C 60.4 °F /  15.8 °C 30 in /  1014.8 hPa SE 1 mph /  1.6 km/h 1 mph /  1.6 km/h 77 % 0 in /  0.0 mm
01:25 68 °F /  20.0 °C 60.4 °F /  15.8 °C 30 in /  1014.8 hPa Calm   2 mph /  3.2 km/h 77 % 0 in /  0.0 mm
01:35 67.8 °F /  19.9 °C 60.3 °F /  15.7 °C 30 in /  1014.8 hPa ENE 1 mph /  1.6 km/h   77 % 0 in /  0.0 mm
01:45 67.8 °F /  19.9 °C 60.6 °F /  15.9 °C 30 in /  1014.8 hPa Calm   1 mph /  1.6 km/h 78 % 0 in /  0.0 mm
01:55 67.8 °F /  19.9 °C 60.6 °F /  15.9 °C 30 in /  1014.8 hPa Calm     78 % 0 in /  0.0 mm
02:05 67.8 °F /  19.9 °C 60.6 °F /  15.9 °C 30 in /  1014.8 hPa Calm     78 % 0 in /  0.0 mm
02:15 68 °F /  20.0 °C 61 °F /  16.1 °C 30 in /  1014.8 hPa Calm   1 mph /  1.6 km/h 78 % 0 in /  0.0 mm
02:25 68.4 °F /  20.2 °C 61 °F /  16.1 °C 30 in /  1014.8 hPa Calm   1 mph /  1.6 km/h 77 % 0 in /  0.0 mm
02:35 68.7 °F /  20.4 °C 61.2 °F /  16.2 °C 30 in /  1014.8 hPa South 1 mph /  1.6 km/h 3 mph /  4.8 km/h 77 % 0 in /  0.0 mm
02:45 69.1 °F /  20.6 °C 60.8 °F /  16.0 °C 30 in /  1015.8 hPa Calm   2 mph /  3.2 km/h 75 % 0 in /  0.0 mm
02:55 69.8 °F /  21.0 °C 61.2 °F /  16.2 °C 30 in /  1014.8 hPa Calm   3 mph /  4.8 km/h 74 % 0 in /  0.0 mm
03:05 70.3 °F /  21.3 °C 61.3 °F /  16.3 °C 30 in /  1014.8 hPa NNE 1 mph /  1.6 km/h 2 mph /  3.2 km/h 73 % 0 in /  0.0 mm
03:15 70.9 °F /  21.6 °C 61.3 °F /  16.3 °C 30 in /  1015.8 hPa NE 1 mph /  1.6 km/h 3 mph /  4.8 km/h 72 % 0 in /  0.0 mm
03:25 70.3 °F /  21.3 °C 60.4 °F /  15.8 °C 30 in /  1014.8 hPa NE 2 mph /  3.2 km/h 3 mph /  4.8 km/h 71 % 0 in /  0.0 mm
03:35 70.9 °F /  21.6 °C 61 °F /  16.1 °C 30 in /  1014.8 hPa NE 1 mph /  1.6 km/h 3 mph /  4.8 km/h 71 % 0 in /  0.0 mm
03:45 72.3 °F /  22.4 °C 61.5 °F /  16.4 °C 30 in /  1014.8 hPa NE 2 mph /  3.2 km/h 3 mph /  4.8 km/h 69 % 0 in /  0.0 mm
03:55 73 °F /  22.8 °C 61.9 °F /  16.6 °C 30 in /  1015.8 hPa ENE 2 mph /  3.2 km/h 3 mph /  4.8 km/h 68 % 0 in /  0.0 mm
04:05 72.9 °F /  22.7 °C 60.8 °F /  16.0 °C 30 in /  1015.8 hPa NE 2 mph /  3.2 km/h 4 mph /  6.4 km/h 66 % 0 in /  0.0 mm
04:15 74.3 °F /  23.5 °C 62.2 °F /  16.8 °C 30 in /  1015.8 hPa NE 2 mph /  3.2 km/h 4 mph /  6.4 km/h 66 % 0 in /  0.0 mm
04:25 75 °F /  23.9 °C 62.4 °F /  16.9 °C 30 in /  1015.8 hPa NE 1 mph /  1.6 km/h 4 mph /  6.4 km/h 65 % 0 in /  0.0 mm
04:35 77.4 °F /  25.2 °C 63 °F /  17.2 °C 30 in /  1015.8 hPa NE 1 mph /  1.6 km/h 1 mph /  1.6 km/h 61 % 0 in /  0.0 mm
04:45 78.8 °F /  26.0 °C 64.8 °F /  18.2 °C 30 in /  1015.8 hPa NNW 2 mph /  3.2 km/h 3 mph /  4.8 km/h 62 % 0 in /  0.0 mm
04:55 77.9 °F /  25.5 °C 63.9 °F /  17.7 °C 30 in /  1015.8 hPa NNE 1 mph /  1.6 km/h 2 mph /  3.2 km/h 62 % 0 in /  0.0 mm
05:05 77.9 °F /  25.5 °C 64.2 °F /  17.9 °C 30 in /  1015.8 hPa NE 3 mph /  4.8 km/h 4 mph /  6.4 km/h 63 % 0 in /  0.0 mm
05:15 77.9 °F /  25.5 °C 64.2 °F /  17.9 °C 30 in /  1015.8 hPa ENE 2 mph /  3.2 km/h 3 mph /  4.8 km/h 63 % 0 in /  0.0 mm
05:25 78.8 °F /  26.0 °C 64.8 °F /  18.2 °C 30 in /  1015.8 hPa ENE 1 mph /  1.6 km/h 3 mph /  4.8 km/h 62 % 0 in /  0.0 mm
05:35 80.8 °F /  27.1 °C 65.7 °F /  18.7 °C 30 in /  1015.8 hPa West 3 mph /  4.8 km/h 3 mph /  4.8 km/h 60 % 0 in /  0.0 mm
05:45 81.9 °F /  27.7 °C 65.7 °F /  18.7 °C 30 in /  1015.8 hPa SSW 3 mph /  4.8 km/h 4 mph /  6.4 km/h 58 % 0 in /  0.0 mm
10:49 82.8 °F /  28.2 °C 66 °F /  18.9 °C 30 in /  1015.8 hPa South 2.3 mph /  3.7 km/h 2.3 mph /  3.7 km/h 57 % 0 in /  0.0 mm
10:54 82.6 °F /  28.1 °C 65.3 °F /  18.5 °C 30 in /  1015.8 hPa South 3.5 mph /  5.6 km/h 3.8 mph /  6.1 km/h 56 % 0 in /  0.0 mm
10:59 82.4 °F /  28.0 °C 64.6 °F /  18.1 °C 30 in /  1015.8 hPa SW 3.8 mph /  6.1 km/h 3.8 mph /  6.1 km/h 55 % 0 in /  0.0 mm
11:05 82.4 °F /  28.0 °C 64 °F /  17.8 °C 30 in /  1015.8 hPa West 4.6 mph /  7.4 km/h 4.6 mph /  7.4 km/h 54 % 0 in /  0.0 mm
11:10 83.1 °F /  28.4 °C 63.7 °F /  17.6 °C 30 in /  1015.8 hPa SSW 4.6 mph /  7.4 km/h 4.6 mph /  7.4 km/h 52 % 0 in /  0.0 mm
11:15 83.7 °F /  28.7 °C 63.7 °F /  17.6 °C 30 in /  1015.8 hPa SSW 6.9 mph /  11.1 km/h 6.9 mph /  11.1 km/h 51 % 0 in /  0.0 mm
11:20 83.7 °F /  28.7 °C 63.7 °F /  17.6 °C 30 in /  1015.8 hPa SSE 5.8 mph /  9.3 km/h 5.8 mph /  9.3 km/h 51 % 0 in /  0.0 mm
11:25 83.8 °F /  28.8 °C 63.1 °F /  17.3 °C 30 in /  1015.8 hPa SW 11.5 mph /  18.5 km/h 11.5 mph /  18.5 km/h 50 % 0 in /  0.0 mm
11:30 84.7 °F /  29.3 °C 63.5 °F /  17.5 °C 30 in /  1015.8 hPa SSW 2.3 mph /  3.7 km/h 3.8 mph /  6.1 km/h 49 % 0 in /  0.0 mm
11:35 84.6 °F /  29.2 °C 63.3 °F /  17.4 °C 30 in /  1015.8 hPa West 8.1 mph /  13.0 km/h 8.1 mph /  13.0 km/h 49 % 0 in /  0.0 mm
11:40 84.4 °F /  29.1 °C 63.1 °F /  17.3 °C 30 in /  1014.8 hPa WSW 2 mph /  3.2 km/h 6 mph /  9.7 km/h 49 % 0 in /  0.0 mm
11:45 85.5 °F /  29.7 °C 64 °F /  17.8 °C 30 in /  1014.8 hPa WSW 2 mph /  3.2 km/h 6 mph /  9.7 km/h 49 % 0 in /  0.0 mm
11:50 85.3 °F /  29.6 °C 64 °F /  17.8 °C 30 in /  1014.8 hPa WSW 5.9 mph /  9.5 km/h 5.9 mph /  9.5 km/h 49 % 0 in /  0.0 mm
11:55 85.5 °F /  29.7 °C 64 °F /  17.8 °C 30 in /  1015.8 hPa WSW 5.9 mph /  9.5 km/h 5.9 mph /  9.5 km/h 49 % 0 in /  0.0 mm
12:00 85.8 °F /  29.9 °C 63.9 °F /  17.7 °C 30 in /  1015.8 hPa SSW 5.8 mph /  9.3 km/h 5.8 mph /  9.3 km/h 48 % 0 in /  0.0 mm
12:05 86.4 °F /  30.2 °C 64.4 °F /  18.0 °C 30 in /  1015.8 hPa WSW 6.9 mph /  11.1 km/h 6.9 mph /  11.1 km/h 48 % 0 in /  0.0 mm
12:10 86 °F /  30.0 °C 64 °F /  17.8 °C 30 in /  1015.8 hPa WSW 5.8 mph /  9.3 km/h 5.8 mph /  9.3 km/h 48 % 0 in /  0.0 mm
12:15 86.5 °F /  30.3 °C 64.6 °F /  18.1 °C 30 in /  1015.8 hPa SW 6.9 mph /  11.1 km/h 6.9 mph /  11.1 km/h 48 % 0 in /  0.0 mm
12:20 86.5 °F /  30.3 °C 63.9 °F /  17.7 °C 30 in /  1015.8 hPa SW 5 mph /  8.0 km/h 6 mph /  9.7 km/h 47 % 0 in /  0.0 mm
12:25 87.3 °F /  30.7 °C 64.6 °F /  18.1 °C 30 in /  1014.8 hPa SW 6 mph /  9.7 km/h 8 mph /  12.9 km/h 47 % 0 in /  0.0 mm
12:30 87.1 °F /  30.6 °C 63.7 °F /  17.6 °C 30 in /  1014.8 hPa SW 3 mph /  4.8 km/h 8 mph /  12.9 km/h 46 % 0 in /  0.0 mm
12:35 88.3 °F /  31.3 °C 64.9 °F /  18.3 °C 30 in /  1014.8 hPa ENE 3.5 mph /  5.6 km/h 3.5 mph /  5.6 km/h 46 % 0 in /  0.0 mm
12:40 89.1 °F /  31.7 °C 64.9 °F /  18.3 °C 30 in /  1014.8 hPa East 4.6 mph /  7.4 km/h 4.6 mph /  7.4 km/h 45 % 0 in /  0.0 mm
12:45 89.1 °F /  31.7 °C 64.2 °F /  17.9 °C 30 in /  1014.8 hPa South 5.8 mph /  9.3 km/h 5.8 mph /  9.3 km/h 44 % 0 in /  0.0 mm
12:50 89.8 °F /  32.1 °C 64.2 °F /  17.9 °C 30 in /  1014.8 hPa WSW 2.9 mph /  4.7 km/h 3.3 mph /  5.3 km/h 43 % 0 in /  0.0 mm
12:55 90.5 °F /  32.5 °C 64.9 °F /  18.3 °C 30 in /  1014.8 hPa SSW 8.1 mph /  13.0 km/h 8.1 mph /  13.0 km/h 43 % 0 in /  0.0 mm
13:00 89.2 °F /  31.8 °C 63.9 °F /  17.7 °C 30 in /  1014.8 hPa SW 3.5 mph /  5.6 km/h 3.5 mph /  5.6 km/h 43 % 0 in /  0.0 mm
13:05 89.2 °F /  31.8 °C 63.1 °F /  17.3 °C 30 in /  1014.8 hPa SW 5.8 mph /  9.3 km/h 5.8 mph /  9.3 km/h 42 % 0 in /  0.0 mm
13:10 89.1 °F /  31.7 °C 63 °F /  17.2 °C 30 in /  1014.8 hPa SW 4.6 mph /  7.4 km/h 4.7 mph /  7.6 km/h 42 % 0 in /  0.0 mm
13:15 88.7 °F /  31.5 °C 62.8 °F /  17.1 °C 30 in /  1014.8 hPa SSE 2.3 mph /  3.7 km/h 3.8 mph /  6.1 km/h 42 % 0 in /  0.0 mm
13:20 89.4 °F /  31.9 °C 62.6 °F /  17.0 °C 30 in /  1014.8 hPa West 8.1 mph /  13.0 km/h 8.1 mph /  13.0 km/h 41 % 0 in /  0.0 mm
13:21 89.8 °F /  32.1 °C 63 °F /  17.2 °C 30 in /  1014.8 hPa West 5.8 mph /  9.3 km/h 5.8 mph /  9.3 km/h 41 % 0 in /  0.0 mm
13:26 90.9 °F /  32.7 °C 63.1 °F /  17.3 °C 30 in /  1014.8 hPa SSW 5.6 mph /  9.0 km/h 5.6 mph /  9.0 km/h 40 % 0 in /  0.0 mm
13:31 91 °F /  32.8 °C 62.6 °F /  17.0 °C 30 in /  1014.8 hPa SW 8.1 mph /  13.0 km/h 8.1 mph /  13.0 km/h 39 % 0 in /  0.0 mm
13:37 90.3 °F /  32.4 °C 62.1 °F /  16.7 °C 30 in /  1014.8 hPa SW 8.5 mph /  13.7 km/h 8.5 mph /  13.7 km/h 39 % 0 in /  0.0 mm
13:42 91 °F /  32.8 °C 62.6 °F /  17.0 °C 30 in /  1014.8 hPa SW 5.4 mph /  8.7 km/h 5.4 mph /  8.7 km/h 39 % 0 in /  0.0 mm
13:47 91.9 °F /  33.3 °C 61.2 °F /  16.2 °C 30 in /  1014.8 hPa SSE 6.9 mph /  11.1 km/h 6.9 mph /  11.1 km/h 36 % 0 in /  0.0 mm
13:52 91.8 °F /  33.2 °C 61.9 °F /  16.6 °C 30 in /  1014.8 hPa SW 6.9 mph /  11.1 km/h 6.9 mph /  11.1 km/h 37 % 0 in /  0.0 mm
13:57 92.3 °F /  33.5 °C 61.5 °F /  16.4 °C 30 in /  1014.8 hPa South 3.5 mph /  5.6 km/h 3.6 mph /  5.8 km/h 36 % 0 in /  0.0 mm
14:02 92.3 °F /  33.5 °C 62.2 °F /  16.8 °C 30 in /  1014.8 hPa SE 5.8 mph /  9.3 km/h 5.8 mph /  9.3 km/h 37 % 0 in /  0.0 mm
14:07 91.9 °F /  33.3 °C 61.2 °F /  16.2 °C 30 in /  1014.8 hPa SW 7.8 mph /  12.6 km/h 7.8 mph /  12.6 km/h 36 % 0 in /  0.0 mm
14:12 91.4 °F /  33.0 °C 61.5 °F /  16.4 °C 30 in /  1014.8 hPa SW 8.1 mph /  13.0 km/h 8.1 mph /  13.0 km/h 37 % 0 in /  0.0 mm
14:17 91.9 °F /  33.3 °C 61.2 °F /  16.2 °C 30 in /  1014.8 hPa WSW 7.8 mph /  12.6 km/h 7.8 mph /  12.6 km/h 36 % 0 in /  0.0 mm
14:22 92.5 °F /  33.6 °C 61.5 °F /  16.4 °C 30 in /  1014.8 hPa SW 4.6 mph /  7.4 km/h 4.6 mph /  7.4 km/h 36 % 0 in /  0.0 mm
14:27 92.5 °F /  33.6 °C 60.8 °F /  16.0 °C 30 in /  1014.8 hPa SSW 3.3 mph /  5.3 km/h 3.3 mph /  5.3 km/h 35 % 0 in /  0.0 mm
14:32 92.5 °F /  33.6 °C 61.5 °F /  16.4 °C 30 in /  1014.8 hPa SW 9.2 mph /  14.8 km/h 9.2 mph /  14.8 km/h 36 % 0 in /  0.0 mm
14:37 92.8 °F /  33.8 °C 62.1 °F /  16.7 °C 29.9 in /  1013.8 hPa SW 4.6 mph /  7.4 km/h 4.6 mph /  7.4 km/h 36 % 0 in /  0.0 mm
14:42 92.8 °F /  33.8 °C 62.1 °F /  16.7 °C 29.9 in /  1013.8 hPa West 4 mph /  6.4 km/h 4 mph /  6.4 km/h 36 % 0 in /  0.0 mm
14:48 91.8 °F /  33.2 °C 60.3 °F /  15.7 °C 29.9 in /  1013.8 hPa WNW 6.2 mph /  10.0 km/h 6.2 mph /  10.0 km/h 35 % 0 in /  0.0 mm
14:53 90.9 °F /  32.7 °C 60.3 °F /  15.7 °C 29.9 in /  1013.8 hPa SSW 10.4 mph /  16.7 km/h 10.4 mph /  16.7 km/h 36 % 0 in /  0.0 mm
14:58 91.2 °F /  32.9 °C 60.4 °F /  15.8 °C 29.9 in /  1013.8 hPa SE 8.1 mph /  13.0 km/h 8.1 mph /  13.0 km/h 36 % 0 in /  0.0 mm
15:03 91.8 °F /  33.2 °C 60.3 °F /  15.7 °C 29.9 in /  1013.8 hPa SW 8.5 mph /  13.7 km/h 8.5 mph /  13.7 km/h 35 % 0 in /  0.0 mm
15:08 91.4 °F /  33.0 °C 59.2 °F /  15.1 °C 29.9 in /  1013.8 hPa SSW 5.8 mph /  9.3 km/h 5.8 mph /  9.3 km/h 34 % 0 in /  0.0 mm
15:14 91.8 °F /  33.2 °C 60.3 °F /  15.7 °C 29.9 in /  1013.8 hPa SW 5.8 mph /  9.3 km/h 5.8 mph /  9.3 km/h 35 % 0 in /  0.0 mm
15:19 92.1 °F /  33.4 °C 60.4 °F /  15.8 °C 29.9 in /  1013.8 hPa SW 5.8 mph /  9.3 km/h 5.8 mph /  9.3 km/h 35 % 0 in /  0.0 mm
15:24 92.5 °F /  33.6 °C 60.1 °F /  15.6 °C 29.9 in /  1013.8 hPa SSW 5.8 mph /  9.3 km/h 5.8 mph /  9.3 km/h 34 % 0 in /  0.0 mm
15:29 92.3 °F /  33.5 °C 59.9 °F /  15.5 °C 29.9 in /  1013.8 hPa SW 4.6 mph /  7.4 km/h 4.6 mph /  7.4 km/h 34 % 0 in /  0.0 mm
15:34 91.8 °F /  33.2 °C 58.6 °F /  14.8 °C 29.9 in /  1013.8 hPa WSW 9.2 mph /  14.8 km/h 9.2 mph /  14.8 km/h 33 % 0 in /  0.0 mm
15:39 91.4 °F /  33.0 °C 58.3 °F /  14.6 °C 29.9 in /  1013.8 hPa SW 9.2 mph /  14.8 km/h 9.2 mph /  14.8 km/h 33 % 0 in /  0.0 mm
15:44 92.5 °F /  33.6 °C 59.2 °F /  15.1 °C 29.9 in /  1013.8 hPa South 4.6 mph /  7.4 km/h 4.6 mph /  7.4 km/h 33 % 0 in /  0.0 mm
15:49 92.8 °F /  33.8 °C 59.5 °F /  15.3 °C 29.9 in /  1013.8 hPa WSW 10.2 mph /  16.4 km/h 10.2 mph /  16.4 km/h 33 % 0 in /  0.0 mm
15:54 92.7 °F /  33.7 °C 58.5 °F /  14.7 °C 29.9 in /  1013.8 hPa NNE 4.6 mph /  7.4 km/h 4.6 mph /  7.4 km/h 32 % 0 in /  0.0 mm
15:59 92.7 °F /  33.7 °C 58.5 °F /  14.7 °C 29.9 in /  1013.8 hPa SW 8.1 mph /  13.0 km/h 8.1 mph /  13.0 km/h 32 % 0 in /  0.0 mm
16:05 91.9 °F /  33.3 °C 57 °F /  13.9 °C 29.9 in /  1013.8 hPa SW 9.7 mph /  15.6 km/h 9.7 mph /  15.6 km/h 31 % 0 in /  0.0 mm
16:10 92.1 °F /  33.4 °C 57 °F /  13.9 °C 29.9 in /  1013.8 hPa SSW 6.9 mph /  11.1 km/h 6.9 mph /  11.1 km/h 31 % 0 in /  0.0 mm
16:15 92.8 °F /  33.8 °C 57.7 °F /  14.3 °C 29.9 in /  1013.8 hPa SW 10.4 mph /  16.7 km/h 10.4 mph /  16.7 km/h 31 % 0 in /  0.0 mm
16:20 92.8 °F /  33.8 °C 57.7 °F /  14.3 °C 29.9 in /  1013.8 hPa SW 5.8 mph /  9.3 km/h 5.8 mph /  9.3 km/h 31 % 0 in /  0.0 mm
16:25 92.7 °F /  33.7 °C 57.6 °F /  14.2 °C 29.9 in /  1012.8 hPa South 5.4 mph /  8.7 km/h 5.4 mph /  8.7 km/h 31 % 0 in /  0.0 mm
16:30 92.1 °F /  33.4 °C 56.1 °F /  13.4 °C 29.9 in /  1012.8 hPa SW 9.2 mph /  14.8 km/h 9.2 mph /  14.8 km/h 30 % 0 in /  0.0 mm
16:35 91.8 °F /  33.2 °C 55 °F /  12.8 °C 29.9 in /  1012.8 hPa South 6.9 mph /  11.1 km/h 6.9 mph /  11.1 km/h 29 % 0 in /  0.0 mm
16:40 92.1 °F /  33.4 °C 55.2 °F /  12.9 °C 30 in /  1014.8 hPa SW 8.1 mph /  13.0 km/h 8.1 mph /  13.0 km/h 29 % 0 in /  0.0 mm
16:45 91.9 °F /  33.3 °C 55 °F /  12.8 °C 30 in /  1014.8 hPa SW 9.2 mph /  14.8 km/h 9.2 mph /  14.8 km/h 29 % 0 in /  0.0 mm
16:50 92.1 °F /  33.4 °C 55.2 °F /  12.9 °C 30 in /  1014.8 hPa SW 4.6 mph /  7.4 km/h 4.6 mph /  7.4 km/h 29 % 0 in /  0.0 mm
16:55 91.9 °F /  33.3 °C 55 °F /  12.8 °C 29.9 in /  1013.8 hPa SW 6 mph /  9.7 km/h 9 mph /  14.5 km/h 29 % 0 in /  0.0 mm
17:00 92.5 °F /  33.6 °C 56.5 °F /  13.6 °C 29.9 in /  1013.8 hPa SW 6.4 mph /  10.3 km/h 6.4 mph /  10.3 km/h 30 % 0 in /  0.0 mm
17:05 91.4 °F /  33.0 °C 54.7 °F /  12.6 °C 29.9 in /  1013.8 hPa SW 6 mph /  9.7 km/h 13 mph /  20.9 km/h 29 % 0 in /  0.0 mm
17:10 91.6 °F /  33.1 °C 54.9 °F /  12.7 °C 29.9 in /  1013.8 hPa SW 5 mph /  8.0 km/h 9 mph /  14.5 km/h 29 % 0 in /  0.0 mm
17:15 91.4 °F /  33.0 °C 54.7 °F /  12.6 °C 29.9 in /  1013.8 hPa SW 3 mph /  4.8 km/h 10 mph /  16.1 km/h 29 % 0 in /  0.0 mm
17:20 92.1 °F /  33.4 °C 55.2 °F /  12.9 °C 29.9 in /  1013.8 hPa SW 5 mph /  8.0 km/h 10 mph /  16.1 km/h 29 % 0 in /  0.0 mm
17:25 91.8 °F /  33.2 °C 54 °F /  12.2 °C 29.9 in /  1013.8 hPa SSW 2 mph /  3.2 km/h 7 mph /  11.3 km/h 28 % 0 in /  0.0 mm
17:30 91.8 °F /  33.2 °C 54 °F /  12.2 °C 29.9 in /  1013.8 hPa SSW 3 mph /  4.8 km/h 7 mph /  11.3 km/h 28 % 0 in /  0.0 mm
17:35 91.9 °F /  33.3 °C 54.1 °F /  12.3 °C 29.9 in /  1013.8 hPa WSW 8.1 mph /  13.0 km/h 8.1 mph /  13.0 km/h 28 % 0 in /  0.0 mm
17:40 92.3 °F /  33.5 °C 54.5 °F /  12.5 °C 29.9 in /  1013.8 hPa SW 9.7 mph /  15.6 km/h 9.7 mph /  15.6 km/h 28 % 0 in /  0.0 mm
17:45 91.4 °F /  33.0 °C 53.8 °F /  12.1 °C 29.9 in /  1013.8 hPa SSW 8.1 mph /  13.0 km/h 8.1 mph /  13.0 km/h 28 % 0 in /  0.0 mm
17:50 91.8 °F /  33.2 °C 54 °F /  12.2 °C 29.9 in /  1013.8 hPa West 6.9 mph /  11.1 km/h 6.9 mph /  11.1 km/h 28 % 0 in /  0.0 mm
17:55 91 °F /  32.8 °C 53.4 °F /  11.9 °C 29.9 in /  1013.8 hPa SSW 8.1 mph /  13.0 km/h 8.1 mph /  13.0 km/h 28 % 0 in /  0.0 mm
18:00 90.1 °F /  32.3 °C 52.5 °F /  11.4 °C 29.9 in /  1013.8 hPa West 6.9 mph /  11.1 km/h 6.9 mph /  11.1 km/h 28 % 0 in /  0.0 mm
18:05 89.8 °F /  32.1 °C 52.3 °F /  11.3 °C 29.9 in /  1013.8 hPa SSW 8.1 mph /  13.0 km/h 8.1 mph /  13.0 km/h 28 % 0 in /  0.0 mm
18:10 90 °F /  32.2 °C 52.5 °F /  11.4 °C 29.9 in /  1013.8 hPa SSW 8.1 mph /  13.0 km/h 8.1 mph /  13.0 km/h 28 % 0 in /  0.0 mm
18:15 89.8 °F /  32.1 °C 52.3 °F /  11.3 °C 29.9 in /  1013.8 hPa SW 5.8 mph /  9.3 km/h 5.8 mph /  9.3 km/h 28 % 0 in /  0.0 mm
18:20 89.4 °F /  31.9 °C 53.1 °F /  11.7 °C 29.9 in /  1013.8 hPa South 10 mph /  16.1 km/h 10 mph /  16.1 km/h 29 % 0 in /  0.0 mm
18:25 88.9 °F /  31.6 °C 52.5 °F /  11.4 °C 29.9 in /  1013.8 hPa SSW 9.2 mph /  14.8 km/h 9.2 mph /  14.8 km/h 29 % 0 in /  0.0 mm
18:30 88.7 °F /  31.5 °C 52.3 °F /  11.3 °C 29.9 in /  1013.8 hPa SW 9.2 mph /  14.8 km/h 9.2 mph /  14.8 km/h 29 % 0 in /  0.0 mm
18:35 88.9 °F /  31.6 °C 52.5 °F /  11.4 °C 29.9 in /  1013.8 hPa SW 9.2 mph /  14.8 km/h 9.2 mph /  14.8 km/h 29 % 0 in /  0.0 mm
18:40 88.2 °F /  31.2 °C 52 °F /  11.1 °C 29.9 in /  1013.8 hPa SW 5.8 mph /  9.3 km/h 5.8 mph /  9.3 km/h 29 % 0 in /  0.0 mm
18:45 88.5 °F /  31.4 °C 52.2 °F /  11.2 °C 29.9 in /  1013.8 hPa WSW 6.9 mph /  11.1 km/h 6.9 mph /  11.1 km/h 29 % 0 in /  0.0 mm
18:51 88 °F /  31.1 °C 51.6 °F /  10.9 °C 29.9 in /  1013.8 hPa WSW 8.1 mph /  13.0 km/h 8.1 mph /  13.0 km/h 29 % 0 in /  0.0 mm
18:56 87.6 °F /  30.9 °C 52.3 °F /  11.3 °C 29.9 in /  1013.8 hPa SW 5.8 mph /  9.3 km/h 5.8 mph /  9.3 km/h 30 % 0 in /  0.0 mm
19:01 87.4 °F /  30.8 °C 53.1 °F /  11.7 °C 29.9 in /  1013.8 hPa SSW 8.1 mph /  13.0 km/h 8.1 mph /  13.0 km/h 31 % 0 in /  0.0 mm
19:06 87.1 °F /  30.6 °C 52.9 °F /  11.6 °C 29.9 in /  1013.8 hPa South 4.6 mph /  7.4 km/h 4.6 mph /  7.4 km/h 31 % 0 in /  0.0 mm
19:11 86.9 °F /  30.5 °C 53.4 °F /  11.9 °C 29.9 in /  1013.8 hPa West 4.7 mph /  7.6 km/h 4.7 mph /  7.6 km/h 32 % 0 in /  0.0 mm
19:15 74.7 °F /  23.7 °C 62.4 °F /  16.9 °C 30 in /  1014.8 hPa SW 2 mph /  3.2 km/h 3 mph /  4.8 km/h 66 % 0 in /  0.0 mm
19:16 86.4 °F /  30.2 °C 54 °F /  12.2 °C 29.9 in /  1013.8 hPa SW 8.1 mph /  13.0 km/h 8.1 mph /  13.0 km/h 33 % 0 in /  0.0 mm
19:17 86.4 °F /  30.2 °C 54 °F /  12.2 °C 29.9 in /  1013.8 hPa SW 6.9 mph /  11.1 km/h 6.9 mph /  11.1 km/h 33 % 0 in /  0.0 mm
19:23 86.4 °F /  30.2 °C 53.1 °F /  11.7 °C 29.9 in /  1013.8 hPa SW 5.8 mph /  9.3 km/h 5.8 mph /  9.3 km/h 32 % 0 in /  0.0 mm
19:25 74.5 °F /  23.6 °C 62.4 °F /  16.9 °C 30 in /  1014.8 hPa SW 2 mph /  3.2 km/h 3 mph /  4.8 km/h 66 % 0 in /  0.0 mm
19:28 85.8 °F /  29.9 °C 52.5 °F /  11.4 °C 29.9 in /  1013.8 hPa WSW 8.1 mph /  13.0 km/h 8.1 mph /  13.0 km/h 32 % 0 in /  0.0 mm
19:33 85.3 °F /  29.6 °C 52.9 °F /  11.6 °C 29.9 in /  1013.8 hPa SW 8.5 mph /  13.7 km/h 8.5 mph /  13.7 km/h 33 % 0 in /  0.0 mm
19:35 74.3 °F /  23.5 °C 62.6 °F /  17.0 °C 30 in /  1014.8 hPa SW 3 mph /  4.8 km/h 3 mph /  4.8 km/h 67 % 0 in /  0.0 mm
19:38 84.7 °F /  29.3 °C 51.6 °F /  10.9 °C 29.9 in /  1013.8 hPa WSW 10.4 mph /  16.7 km/h 10.4 mph /  16.7 km/h 32 % 0 in /  0.0 mm
19:43 84.7 °F /  29.3 °C 51.6 °F /  10.9 °C 29.9 in /  1013.8 hPa SW 3.5 mph /  5.6 km/h 3.5 mph /  5.6 km/h 32 % 0 in /  0.0 mm
19:45 74.3 °F /  23.5 °C 63.9 °F /  17.7 °C 30 in /  1014.8 hPa Calm   1 mph /  1.6 km/h 70 % 0 in /  0.0 mm
19:48 84.6 °F /  29.2 °C 51.4 °F /  10.8 °C 29.9 in /  1013.8 hPa SW 5.8 mph /  9.3 km/h 5.8 mph /  9.3 km/h 32 % 0 in /  0.0 mm
19:53 84.4 °F /  29.1 °C 52.2 °F /  11.2 °C 29.9 in /  1013.8 hPa SSW 6 mph /  9.7 km/h 6 mph /  9.7 km/h 33 % 0 in /  0.0 mm
19:55 74.3 °F /  23.5 °C 64.2 °F /  17.9 °C 29.9 in /  1012.8 hPa NE 2 mph /  3.2 km/h 4 mph /  6.4 km/h 71 % 0 in /  0.0 mm
19:58 84 °F /  28.9 °C 53.4 °F /  11.9 °C 29.9 in /  1013.8 hPa West 4.6 mph /  7.4 km/h 4.6 mph /  7.4 km/h 35 % 0 in /  0.0 mm
20:03 83.7 °F /  28.7 °C 53.1 °F /  11.7 °C 29.9 in /  1013.8 hPa SW 6.9 mph /  11.1 km/h 6.9 mph /  11.1 km/h 35 % 0 in /  0.0 mm
20:05 74.3 °F /  23.5 °C 64.8 °F /  18.2 °C 29.9 in /  1012.8 hPa NE 3 mph /  4.8 km/h 6 mph /  9.7 km/h 72 % 0 in /  0.0 mm
20:08 83.1 °F /  28.4 °C 53.4 °F /  11.9 °C 29.9 in /  1013.8 hPa South 5.8 mph /  9.3 km/h 5.8 mph /  9.3 km/h 36 % 0 in /  0.0 mm
20:14 82.9 °F /  28.3 °C 53.2 °F /  11.8 °C 29.9 in /  1013.8 hPa WSW 3.5 mph /  5.6 km/h 3.5 mph /  5.6 km/h 36 % 0 in /  0.0 mm
20:19 82.8 °F /  28.2 °C 53.1 °F /  11.7 °C 29.9 in /  1013.8 hPa SW 5.8 mph /  9.3 km/h 5.8 mph /  9.3 km/h 36 % 0 in /  0.0 mm
20:24 82.4 °F /  28.0 °C 52.9 °F /  11.6 °C 29.9 in /  1013.8 hPa SW 4.6 mph /  7.4 km/h 4.6 mph /  7.4 km/h 36 % 0 in /  0.0 mm
20:25 74.1 °F /  23.4 °C 64 °F /  17.8 °C 29.9 in /  1013.8 hPa NE 2 mph /  3.2 km/h 2 mph /  3.2 km/h 71 % 0 in /  0.0 mm
20:29 81.7 °F /  27.6 °C 52.9 °F /  11.6 °C 29.9 in /  1013.8 hPa SSW 3.5 mph /  5.6 km/h 3.5 mph /  5.6 km/h 37 % 0 in /  0.0 mm
20:34 81.5 °F /  27.5 °C 52.7 °F /  11.5 °C 29.9 in /  1013.8 hPa WSW 3.8 mph /  6.1 km/h 3.8 mph /  6.1 km/h 37 % 0 in /  0.0 mm
20:35 74.1 °F /  23.4 °C 63.7 °F /  17.6 °C 29.9 in /  1013.8 hPa WSW 2 mph /  3.2 km/h 3 mph /  4.8 km/h 70 % 0 in /  0.0 mm
20:39 81.1 °F /  27.3 °C 53.1 °F /  11.7 °C 29.9 in /  1013.8 hPa SSW 3.5 mph /  5.6 km/h 3.5 mph /  5.6 km/h 38 % 0 in /  0.0 mm
20:44 80.8 °F /  27.1 °C 52.9 °F /  11.6 °C 29.9 in /  1013.8 hPa WSW 2.3 mph /  3.7 km/h 2.3 mph /  3.7 km/h 38 % 0 in /  0.0 mm
20:45 74.1 °F /  23.4 °C 64.6 °F /  18.1 °C 29.9 in /  1013.8 hPa Calm   2 mph /  3.2 km/h 72 % 0 in /  0.0 mm
20:49 80.6 °F /  27.0 °C 53.4 °F /  11.9 °C 29.9 in /  1013.8 hPa SW 2.3 mph /  3.7 km/h 2.3 mph /  3.7 km/h 39 % 0 in /  0.0 mm
20:54 80.4 °F /  26.9 °C 54 °F /  12.2 °C 29.9 in /  1013.8 hPa SSW 3.5 mph /  5.6 km/h 3.5 mph /  5.6 km/h 40 % 0 in /  0.0 mm
20:59 79.9 °F /  26.6 °C 54.1 °F /  12.3 °C 29.9 in /  1013.8 hPa SSE 4.7 mph /  7.6 km/h 4.7 mph /  7.6 km/h 41 % 0 in /  0.0 mm
21:05 79.7 °F /  26.5 °C 54.7 °F /  12.6 °C 29.9 in /  1013.8 hPa SW 2 mph /  3.2 km/h 6 mph /  9.7 km/h 42 % 0 in /  0.0 mm
21:10 79.3 °F /  26.3 °C 55.6 °F /  13.1 °C 30 in /  1014.8 hPa WSW 2 mph /  3.2 km/h 6 mph /  9.7 km/h 44 % 0 in /  0.0 mm
21:15 79 °F /  26.1 °C 55.8 °F /  13.2 °C 30 in /  1014.8 hPa SW 2 mph /  3.2 km/h 6 mph /  9.7 km/h 45 % 0 in /  0.0 mm
21:20 78.6 °F /  25.9 °C 56.1 °F /  13.4 °C 30 in /  1014.8 hPa SW 3 mph /  4.8 km/h 6 mph /  9.7 km/h 46 % 0 in /  0.0 mm
21:25 78.4 °F /  25.8 °C 56.5 °F /  13.6 °C 30 in /  1015.8 hPa SW 3 mph /  4.8 km/h 5 mph /  8.0 km/h 47 % 0 in /  0.0 mm
21:30 78.3 °F /  25.7 °C 57 °F /  13.9 °C 30 in /  1015.8 hPa SW 3 mph /  4.8 km/h 6 mph /  9.7 km/h 48 % 0 in /  0.0 mm
21:35 78.1 °F /  25.6 °C 57.9 °F /  14.4 °C 30 in /  1015.8 hPa SW 2 mph /  3.2 km/h 5 mph /  8.0 km/h 50 % 0 in /  0.0 mm
21:40 77.9 °F /  25.5 °C 57.7 °F /  14.3 °C 30 in /  1014.8 hPa SW 2 mph /  3.2 km/h 5 mph /  8.0 km/h 50 % 0 in /  0.0 mm
21:45 77.7 °F /  25.4 °C 58.3 °F /  14.6 °C 30 in /  1014.8 hPa SW 3 mph /  4.8 km/h 5 mph /  8.0 km/h 51 % 0 in /  0.0 mm
21:50 77.5 °F /  25.3 °C 58.5 °F /  14.7 °C 30 in /  1014.8 hPa South 1.2 mph /  1.9 km/h   52 % 0 in /  0.0 mm
21:55 77.5 °F /  25.3 °C 59.2 °F /  15.1 °C 30 in /  1014.8 hPa SSE 1.2 mph /  1.9 km/h   53 % 0 in /  0.0 mm
22:00 77.4 °F /  25.2 °C 58.8 °F /  14.9 °C 30 in /  1014.8 hPa WSW 2.3 mph /  3.7 km/h 2.3 mph /  3.7 km/h 53 % 0 in /  0.0 mm
22:05 77.4 °F /  25.2 °C 58.8 °F /  14.9 °C 30 in /  1014.8 hPa WSW 1.6 mph /  2.6 km/h   53 % 0 in /  0.0 mm
22:10 77.2 °F /  25.1 °C 58.6 °F /  14.8 °C 30 in /  1014.8 hPa WSW 2.3 mph /  3.7 km/h 2.3 mph /  3.7 km/h 53 % 0 in /  0.0 mm
22:15 77.2 °F /  25.1 °C 59.2 °F /  15.1 °C 30 in /  1014.8 hPa WSW 1 mph /  1.6 km/h 1 mph /  1.6 km/h 54 % 0 in /  0.0 mm
22:20 77 °F /  25.0 °C 59.2 °F /  15.1 °C 30 in /  1014.8 hPa Calm   2 mph /  3.2 km/h 54 % 0 in /  0.0 mm
22:25 77 °F /  25.0 °C 59.2 °F /  15.1 °C 30 in /  1014.8 hPa SW 1 mph /  1.6 km/h 3 mph /  4.8 km/h 54 % 0 in /  0.0 mm
22:30 76.8 °F /  24.9 °C 59.4 °F /  15.2 °C 30 in /  1014.8 hPa SW 2 mph /  3.2 km/h 3 mph /  4.8 km/h 55 % 0 in /  0.0 mm
22:35 76.6 °F /  24.8 °C 59.7 °F /  15.4 °C 30 in /  1014.8 hPa SW 3.5 mph /  5.6 km/h 3.5 mph /  5.6 km/h 56 % 0 in /  0.0 mm
22:40 76.5 °F /  24.7 °C 59.5 °F /  15.3 °C 30 in /  1014.8 hPa Calm   2 mph /  3.2 km/h 56 % 0 in /  0.0 mm
22:45 76.3 °F /  24.6 °C 59.9 °F /  15.5 °C 30 in /  1014.8 hPa Calm   1 mph /  1.6 km/h 57 % 0 in /  0.0 mm
22:50 76.1 °F /  24.5 °C 59.7 °F /  15.4 °C 30 in /  1014.8 hPa Calm   1 mph /  1.6 km/h 57 % 0 in /  0.0 mm
22:55 76.1 °F /  24.5 °C 59.7 °F /  15.4 °C 30 in /  1014.8 hPa SSW 1 mph /  1.6 km/h 2 mph /  3.2 km/h 57 % 0 in /  0.0 mm
23:00 76.1 °F /  24.5 °C 59.7 °F /  15.4 °C 30 in /  1014.8 hPa Calm   2 mph /  3.2 km/h 57 % 0 in /  0.0 mm
23:05 75.9 °F /  24.4 °C 59.5 °F /  15.3 °C 30 in /  1014.8 hPa WSW 1 mph /  1.6 km/h 2 mph /  3.2 km/h 57 % 0 in /  0.0 mm
23:10 75.7 °F /  24.3 °C 59.4 °F /  15.2 °C 30 in /  1014.8 hPa SW 2.3 mph /  3.7 km/h 2.3 mph /  3.7 km/h 57 % 0 in /  0.0 mm
23:15 75.6 °F /  24.2 °C 59.7 °F /  15.4 °C 30 in /  1014.8 hPa SW 1 mph /  1.6 km/h 2 mph /  3.2 km/h 58 % 0 in /  0.0 mm
23:20 75.6 °F /  24.2 °C 59.7 °F /  15.4 °C 30 in /  1014.8 hPa SW 2 mph /  3.2 km/h 3 mph /  4.8 km/h 58 % 0 in /  0.0 mm
23:25 75.4 °F /  24.1 °C 59.5 °F /  15.3 °C 30 in /  1014.8 hPa SW 2 mph /  3.2 km/h 3 mph /  4.8 km/h 58 % 0 in /  0.0 mm
23:30 75 °F /  23.9 °C 60.3 °F /  15.7 °C 30 in /  1014.8 hPa SW 1 mph /  1.6 km/h 3 mph /  4.8 km/h 60 % 0 in /  0.0 mm
23:35 74.8 °F /  23.8 °C 60.4 °F /  15.8 °C 30 in /  1014.8 hPa SW 2 mph /  3.2 km/h 3 mph /  4.8 km/h 61 % 0 in /  0.0 mm
23:40 74.8 °F /  23.8 °C 60.4 °F /  15.8 °C 30 in /  1014.8 hPa SW 2 mph /  3.2 km/h 4 mph /  6.4 km/h 61 % 0 in /  0.0 mm
23:45 74.7 °F /  23.7 °C 60.8 °F /  16.0 °C 30 in /  1014.8 hPa SW 2 mph /  3.2 km/h 3 mph /  4.8 km/h 62 % 0 in /  0.0 mm
23:50 74.7 °F /  23.7 °C 60.8 °F /  16.0 °C 30 in /  1014.8 hPa SW 2 mph /  3.2 km/h 4 mph /  6.4 km/h 62 % 0 in /  0.0 mm
23:55 74.7 °F /  23.7 °C 61.2 °F /  16.2 °C 30 in /  1014.8 hPa SW 2 mph /  3.2 km/h 5 mph /  8.0 km/h 63 % 0 in /  0.0 mm
Meteo Sesrovires
Elogis d' Weather Underground - 3.5 mb

Guio original per  Jim McMurry - jmcmurry@mwt.net Adaptat per a la plantilla per  Wim van der Kuil - Leuven-Template.eu

Trobareu la nostra informacio del temps tambe a:

Weather Underground

AWEKAS